Time;durP1;ratioP1;P1;durP2;ratioP2;P2;SDS_P1;SDS_P2;PMS_P1;PMS_P2;Temp;Humidity;BMP_temperature;BMP_pressure;BME280_temperature;BME280_humidity;BME280_pressure;Samples;Min_cycle;Max_cycle;Signal;HPM_P1;HPM_P2
2021/10/12 00:01:46;;;;;;;52.53;35.17;;;;;;;9.89;80.55;101210.28;4842432;29;20422;-76
2021/10/12 00:04:11;;;;;;;56.73;36.63;;;;;;;9.89;80.73;101202.16;4857854;29;20882;-76
2021/10/12 00:06:37;;;;;;;60.10;37.87;;;;;;;9.90;80.88;101206.53;4858607;29;20508;-76
2021/10/12 00:09:02;;;;;;;53.67;38.37;;;;;;;9.89;81.05;101196.75;4841675;29;20414;-76
2021/10/12 00:11:28;;;;;;;53.57;37.53;;;;;;;9.88;81.10;101198.63;4858889;29;20466;-76
2021/10/12 00:13:53;;;;;;;52.77;36.73;;;;;;;9.85;81.40;101203.66;4842615;29;20542;-76
2021/10/12 00:16:19;;;;;;;54.25;35.17;;;;;;;9.82;81.32;101204.09;4859128;29;20448;-76
2021/10/12 00:18:47;;;;;;;53.30;36.50;;;;;;;9.80;81.65;101212.47;4856822;29;20565;-76
2021/10/12 00:21:13;;;;;;;53.75;37.08;;;;;;;9.77;81.47;101212.91;4858614;29;20470;-76
2021/10/12 00:23:38;;;;;;;48.17;35.80;;;;;;;9.75;82.08;101203.31;4854267;29;20898;-76
2021/10/12 00:26:04;;;;;;;60.20;40.55;;;;;;;9.75;81.97;101211.44;4858825;29;20426;-76
2021/10/12 00:28:30;;;;;;;60.75;42.08;;;;;;;9.73;81.74;101210.84;4858742;29;20917;-76
2021/10/12 00:30:57;;;;;;;56.75;38.55;;;;;;;9.76;81.94;101216.66;4857101;29;20514;-76
2021/10/12 00:33:23;;;;;;;57.67;39.03;;;;;;;9.78;81.73;101227.28;4857204;29;20436;-76
2021/10/12 00:35:48;;;;;;;56.83;40.17;;;;;;;9.78;81.17;101221.84;4858505;29;20421;-76
2021/10/12 00:38:13;;;;;;;56.60;37.73;;;;;;;9.77;81.41;101223.72;4859035;29;20422;-76
2021/10/12 00:40:39;;;;;;;56.00;39.03;;;;;;;9.75;81.40;101228.53;4841557;29;20482;-76
2021/10/12 00:43:05;;;;;;;57.17;39.53;;;;;;;9.74;81.42;101229.59;4858097;29;20414;-76
2021/10/12 00:45:30;;;;;;;57.70;39.60;;;;;;;9.75;81.63;101228.53;4856147;29;20941;-77
2021/10/12 00:48:01;;;;;;;61.17;42.08;;;;;;;9.78;81.40;101219.94;4865974;29;20940;-76
2021/10/12 00:50:28;;;;;;;65.35;42.30;;;;;;;9.80;81.51;101212.47;4858670;29;20954;-76
2021/10/12 00:52:54;;;;;;;62.97;43.63;;;;;;;9.77;81.52;101212.06;4858304;29;20486;-76
2021/10/12 00:55:20;;;;;;;57.05;41.20;;;;;;;9.75;81.72;101211.44;4841738;29;20418;-76
2021/10/12 00:57:45;;;;;;;66.47;46.00;;;;;;;9.76;81.56;101205.81;4858507;29;20443;-76
2021/10/12 01:00:11;;;;;;;65.17;42.43;;;;;;;9.80;81.80;101204.34;4856833;29;20490;-77
2021/10/12 01:02:37;;;;;;;62.78;41.95;;;;;;;9.84;81.59;101202.03;4857806;29;20414;-76
2021/10/12 01:05:04;;;;;;;56.80;39.40;;;;;;;9.86;81.46;101191.78;4858470;29;20414;-76
2021/10/12 01:07:29;;;;;;;57.95;39.85;;;;;;;9.85;81.34;101182.84;4858440;29;20902;-76
2021/10/12 01:09:55;;;;;;;60.33;40.93;;;;;;;9.86;81.14;101175.53;4840950;29;20430;-76
2021/10/12 01:12:21;;;;;;;58.53;38.28;;;;;;;9.87;81.11;101172.63;4858304;29;20517;-76
2021/10/12 01:14:46;;;;;;;53.03;36.67;;;;;;;9.84;81.40;101170.38;4854354;29;20434;-76
2021/10/12 01:17:11;;;;;;;56.05;38.05;;;;;;;9.83;81.16;101168.69;4857584;29;20463;-76
2021/10/12 01:19:36;;;;;;;55.07;36.97;;;;;;;9.82;81.23;101160.78;4855652;29;20509;-76
2021/10/12 01:22:02;;;;;;;49.00;37.30;;;;;;;9.81;81.34;101165.38;4839927;29;20787;-76
2021/10/12 01:24:27;;;;;;;53.80;36.33;;;;;;;9.81;81.64;101167.28;4855475;29;20421;-76
2021/10/12 01:26:53;;;;;;;49.60;38.00;;;;;;;9.83;81.69;101165.16;4857358;29;20450;-76
2021/10/12 01:29:19;;;;;;;57.22;40.50;;;;;;;9.84;81.99;101159.53;4858328;29;20770;-76
2021/10/12 01:31:44;;;;;;;58.87;40.97;;;;;;;9.87;81.95;101167.22;4858075;29;20422;-76
2021/10/12 01:34:14;;;;;;;61.73;42.07;;;;;;;9.88;81.95;101157.19;4856643;29;20546;-76
2021/10/12 01:36:40;;;;;;;63.35;42.25;;;;;;;9.89;82.26;101156.16;4857938;29;20414;-76
2021/10/12 01:39:05;;;;;;;60.75;41.95;;;;;;;9.90;82.03;101150.53;4857975;29;20438;-76
2021/10/12 01:41:31;;;;;;;61.90;42.87;;;;;;;9.94;82.13;101147.38;4858409;29;20418;-76
2021/10/12 01:43:57;;;;;;;59.27;42.10;;;;;;;9.94;82.04;101141.94;4857604;29;20421;-76
2021/10/12 01:46:22;;;;;;;59.88;42.13;;;;;;;9.92;82.08;101136.75;4841124;29;20934;-76
2021/10/12 01:48:47;;;;;;;58.17;41.87;;;;;;;9.95;81.84;101127.34;4856486;29;20453;-76
2021/10/12 01:51:12;;;;;;;62.20;42.13;;;;;;;9.98;81.89;101125.00;4841827;29;20482;-76
2021/10/12 01:53:38;;;;;;;60.28;41.80;;;;;;;9.96;82.03;101116.28;4860805;29;20426;-76
2021/10/12 01:56:04;;;;;;;61.10;40.72;;;;;;;9.97;81.88;101123.38;4844394;29;20929;-76
2021/10/12 01:58:29;;;;;;;59.37;40.00;;;;;;;9.96;82.23;101120.88;4845065;29;20422;-76
2021/10/12 02:00:55;;;;;;;57.77;39.17;;;;;;;9.95;82.29;101119.22;4861385;29;20422;-76
2021/10/12 02:03:21;;;;;;;54.88;38.83;;;;;;;9.96;82.39;101118.16;4859987;29;20882;-76
2021/10/12 02:05:46;;;;;;;57.78;39.17;;;;;;;9.97;82.30;101115.25;4860334;29;20411;-76
2021/10/12 02:08:11;;;;;;;56.73;39.07;;;;;;;10.00;82.36;101111.25;4861041;29;20437;-76
2021/10/12 02:10:37;;;;;;;54.07;37.93;;;;;;;10.00;82.39;101120.22;4861166;29;20513;-76
2021/10/12 02:13:02;;;;;;;61.10;44.40;;;;;;;10.00;82.13;101122.91;4861055;29;20422;-76
2021/10/12 02:15:27;;;;;;;57.03;39.10;;;;;;;10.02;81.98;101125.38;4861051;29;20450;-76
2021/10/12 02:17:52;;;;;;;54.07;38.77;;;;;;;10.07;82.00;101110.16;4858924;29;20426;-76
2021/10/12 02:20:18;;;;;;;56.50;39.00;;;;;;;10.09;82.14;101116.16;4861460;29;20799;-76
2021/10/12 02:22:43;;;;;;;55.20;38.87;;;;;;;10.09;82.04;101115.31;4861075;29;20414;-76
2021/10/12 02:25:10;;;;;;;61.40;39.03;;;;;;;10.06;82.24;101108.47;4844185;29;20419;-76
2021/10/12 02:27:35;;;;;;;57.90;39.00;;;;;;;10.06;82.36;101102.22;4861267;29;20474;-76
2021/10/12 02:30:01;;;;;;;56.97;41.22;;;;;;;10.08;82.47;101100.13;4857530;29;20505;-76
2021/10/12 02:32:26;;;;;;;60.03;40.42;;;;;;;10.07;82.02;101102.03;4860687;29;20411;-76
2021/10/12 02:34:52;;;;;;;58.33;38.33;;;;;;;10.08;82.08;101100.13;4843789;29;20403;-76
2021/10/12 02:37:17;;;;;;;52.13;37.30;;;;;;;10.06;82.35;101100.34;4860980;29;20422;-76
2021/10/12 02:39:43;;;;;;;53.13;38.55;;;;;;;10.05;82.11;101100.56;4860650;29;20523;-75
2021/10/12 02:42:09;;;;;;;58.87;40.67;;;;;;;10.02;82.64;101095.59;4860705;29;20410;-76
2021/10/12 02:44:34;;;;;;;56.30;37.80;;;;;;;9.99;82.62;101086.06;4858541;29;21501;-76
2021/10/12 02:47:00;;;;;;;54.83;36.37;;;;;;;10.00;82.63;101082.31;4859682;29;20770;-76
2021/10/12 02:49:27;;;;;;;52.80;36.85;;;;;;;10.02;82.30;101074.78;4843850;29;21397;-76
2021/10/12 02:51:52;;;;;;;58.17;38.10;;;;;;;10.06;82.37;101065.16;4860766;29;20528;-76
2021/10/12 02:54:18;;;;;;;58.00;40.27;;;;;;;10.07;81.75;101047.84;4843028;29;20786;-76
2021/10/12 02:56:43;;;;;;;62.58;40.10;;;;;;;10.09;82.12;101042.19;4860629;29;20886;-76
2021/10/12 02:59:09;;;;;;;63.13;41.07;;;;;;;10.07;82.08;101052.44;4859036;29;20476;-76
2021/10/12 03:01:34;;;;;;;59.20;40.03;;;;;;;10.07;82.20;101047.03;4860834;29;20448;-76
2021/10/12 03:04:00;;;;;;;59.17;40.10;;;;;;;10.07;82.51;101050.56;4843013;29;20406;-76
2021/10/12 03:06:25;;;;;;;65.90;43.47;;;;;;;10.04;82.67;101042.06;4860815;29;20760;-76
2021/10/12 03:08:50;;;;;;;58.73;38.77;;;;;;;10.01;82.70;101040.63;4859694;29;20454;-76
2021/10/12 03:11:16;;;;;;;59.97;40.45;;;;;;;10.04;82.80;101039.34;4860170;29;20998;-76
2021/10/12 03:13:42;;;;;;;54.63;39.77;;;;;;;10.04;82.73;101032.06;4858214;29;20453;-76
2021/10/12 03:16:10;;;;;;;60.60;41.50;;;;;;;10.03;82.79;101033.13;4857413;29;20450;-77
2021/10/12 03:18:36;;;;;;;53.78;38.72;;;;;;;10.01;83.20;101040.63;4860229;29;20923;-76
2021/10/12 03:21:02;;;;;;;58.88;39.65;;;;;;;10.03;83.14;101029.56;4860067;29;20429;-76
2021/10/12 03:23:27;;;;;;;57.23;38.77;;;;;;;10.03;83.21;101038.53;4859161;29;20501;-76
2021/10/12 03:25:53;;;;;;;55.30;39.30;;;;;;;10.07;82.90;101028.91;4860149;29;20418;-76
2021/10/12 03:28:19;;;;;;;58.40;41.55;;;;;;;10.11;82.88;101021.94;4840802;29;20423;-76
2021/10/12 03:30:44;;;;;;;67.03;42.80;;;;;;;10.12;82.81;101030.91;4859651;29;20478;-76
2021/10/12 03:33:09;;;;;;;63.60;41.57;;;;;;;10.14;82.77;101026.94;4855921;29;21074;-76
2021/10/12 03:35:37;;;;;;;64.30;41.90;;;;;;;10.16;82.87;101024.84;4859641;29;20414;-77
2021/10/12 03:38:03;;;;;;;62.33;41.83;;;;;;;10.17;82.83;101017.56;4859639;29;20447;-77
2021/10/12 03:40:28;;;;;;;64.33;41.47;;;;;;;10.17;82.99;101023.81;4859667;29;20419;-77
2021/10/12 03:42:54;;;;;;;56.22;40.60;;;;;;;10.18;83.03;101022.72;4859803;29;20770;-77
2021/10/12 03:45:20;;;;;;;61.72;42.08;;;;;;;10.16;82.99;101015.91;4859137;29;20426;-77
2021/10/12 03:47:46;;;;;;;60.42;39.97;;;;;;;10.17;83.30;101022.97;4857161;29;20457;-77
2021/10/12 03:50:11;;;;;;;56.73;38.57;;;;;;;10.19;83.21;101021.69;4859920;29;20505;-77
2021/10/12 03:52:37;;;;;;;56.95;38.85;;;;;;;10.20;83.28;101019.81;4842793;29;20406;-77
2021/10/12 03:55:03;;;;;;;66.87;41.40;;;;;;;10.18;83.39;101011.06;4859255;29;20505;-77
2021/10/12 03:57:29;;;;;;;59.28;40.78;;;;;;;10.19;82.97;101016.25;4859289;29;20417;-77
2021/10/12 03:59:54;;;;;;;58.85;38.25;;;;;;;10.17;82.96;101014.84;4858529;29;20430;-78
2021/10/12 04:02:19;;;;;;;61.27;37.97;;;;;;;10.14;83.30;101009.88;4859908;29;20418;-77
2021/10/12 04:04:44;;;;;;;55.93;38.63;;;;;;;10.12;83.36;101012.78;4852460;29;20477;-77
2021/10/12 04:07:10;;;;;;;56.80;37.67;;;;;;;10.13;83.31;101016.31;4859366;29;20422;-77
2021/10/12 04:09:35;;;;;;;57.67;39.10;;;;;;;10.13;83.40;101010.91;4842399;29;20462;-77
2021/10/12 04:12:00;;;;;;;56.37;39.23;;;;;;;10.12;82.96;101017.38;4842218;29;20410;-77
2021/10/12 04:14:25;;;;;;;58.53;39.73;;;;;;;10.10;83.23;101016.78;4859305;29;20414;-77
2021/10/12 04:16:51;;;;;;;61.60;40.30;;;;;;;10.07;83.30;101017.25;4858129;29;20490;-77
2021/10/12 04:19:16;;;;;;;56.00;37.90;;;;;;;10.06;83.29;101011.00;4857461;29;21252;-77
2021/10/12 04:21:41;;;;;;;58.10;39.20;;;;;;;10.06;83.28;101016.41;4857983;29;20465;-77
2021/10/12 04:24:07;;;;;;;61.37;40.27;;;;;;;10.07;83.15;101026.19;4841652;29;20906;-77
2021/10/12 04:26:32;;;;;;;70.55;43.47;;;;;;;10.10;83.33;101023.03;4858850;29;20429;-77
2021/10/12 04:28:58;;;;;;;78.47;43.73;;;;;;;10.09;83.28;101020.53;4863198;29;20524;-77
2021/10/12 04:31:23;;;;;;;96.47;50.65;;;;;;;10.08;83.31;101018.88;4854857;29;20478;-77
2021/10/12 04:33:49;;;;;;;123.03;54.37;;;;;;;10.05;83.26;101025.56;4861477;29;20527;-77
2021/10/12 04:36:14;;;;;;;134.40;59.37;;;;;;;10.07;83.35;101022.66;4857144;29;20778;-77
2021/10/12 04:38:40;;;;;;;99.90;50.20;;;;;;;10.10;83.23;101027.63;4857444;29;20499;-77
2021/10/12 04:41:07;;;;;;;94.70;49.80;;;;;;;10.09;83.23;101013.25;4859032;29;20414;-77
2021/10/12 04:43:32;;;;;;;92.38;49.83;;;;;;;10.10;83.55;101012.19;4858514;29;20418;-77
2021/10/12 04:45:57;;;;;;;75.82;46.22;;;;;;;10.11;83.36;101008.41;4858824;29;20490;-77
2021/10/12 04:48:22;;;;;;;70.17;45.33;;;;;;;10.13;83.33;101002.78;4853632;29;20470;-77
2021/10/12 04:50:48;;;;;;;73.93;46.65;;;;;;;10.14;83.31;101010.69;4855324;29;20441;-77
2021/10/12 04:53:13;;;;;;;72.33;44.93;;;;;;;10.13;83.38;101008.19;4850345;29;20491;-77
2021/10/12 04:55:40;;;;;;;64.50;41.90;;;;;;;10.12;83.63;101006.53;4856168;29;20422;-77
2021/10/12 04:58:07;;;;;;;67.57;46.83;;;;;;;10.10;83.62;101005.94;4842387;29;20410;-77
2021/10/12 05:00:34;;;;;;;69.33;47.67;;;;;;;10.06;83.62;101008.28;4857976;29;20414;-77
2021/10/12 05:02:59;;;;;;;79.70;52.70;;;;;;;10.05;83.87;101011.19;4841934;29;20507;-77
2021/10/12 05:05:24;;;;;;;67.57;45.40;;;;;;;10.06;83.96;101002.88;4841516;29;20852;-77
2021/10/12 05:07:49;;;;;;;70.37;45.03;;;;;;;10.08;83.49;100999.91;4858535;29;20441;-77
2021/10/12 05:10:15;;;;;;;64.13;42.37;;;;;;;10.09;83.76;101002.41;4855764;29;20429;-77
2021/10/12 05:12:40;;;;;;;66.43;43.60;;;;;;;10.10;83.50;100998.66;4840262;29;20783;-77
2021/10/12 05:15:06;;;;;;;64.17;42.40;;;;;;;10.07;83.58;100991.00;4855121;29;20437;-77
2021/10/12 05:17:40;;;;;;;66.75;43.78;;;;;;;10.08;84.01;100994.50;4854515;29;20442;-78
2021/10/12 05:20:06;;;;;;;67.93;42.47;;;;;;;10.06;83.84;100996.63;4856020;29;20415;-76
2021/10/12 05:22:31;;;;;;;58.07;40.70;;;;;;;10.07;83.89;100993.69;4858344;29;20898;-76
2021/10/12 05:24:57;;;;;;;65.60;42.87;;;;;;;10.10;83.73;100989.69;4852249;29;20426;-77
2021/10/12 05:27:23;;;;;;;59.13;40.72;;;;;;;10.09;83.96;100994.28;4843365;29;20433;-77
2021/10/12 05:29:49;;;;;;;59.53;39.47;;;;;;;10.08;83.89;100992.63;4861827;29;20437;-77
2021/10/12 05:32:14;;;;;;;60.00;39.27;;;;;;;10.08;83.77;100994.50;4861237;29;20512;-77
2021/10/12 05:34:40;;;;;;;61.22;39.65;;;;;;;10.10;83.57;100989.69;4860492;29;20410;-77
2021/10/12 05:37:05;;;;;;;63.80;40.60;;;;;;;10.07;83.77;100990.16;4861028;29;20414;-77
2021/10/12 05:39:30;;;;;;;60.87;38.77;;;;;;;10.05;83.84;100986.84;4861107;29;20501;-77
2021/10/12 05:41:56;;;;;;;59.93;39.00;;;;;;;10.07;84.04;100982.03;4861285;29;20422;-77
2021/10/12 05:44:22;;;;;;;65.47;41.05;;;;;;;10.10;83.96;100981.56;4861428;29;20434;-77
2021/10/12 05:46:47;;;;;;;59.53;37.77;;;;;;;10.12;83.52;100987.56;4859235;29;20779;-77
2021/10/12 05:49:13;;;;;;;53.77;36.83;;;;;;;10.10;83.66;100984.28;4861717;29;20426;-77
2021/10/12 05:51:38;;;;;;;63.78;39.38;;;;;;;10.08;83.66;100976.38;4861850;29;20962;-77
2021/10/12 05:54:06;;;;;;;68.95;42.67;;;;;;;10.09;83.66;100978.03;4861750;29;20426;-77
2021/10/12 05:56:45;;;;;;;74.07;44.55;;;;;;;10.08;83.79;100975.53;4855751;29;20414;-76
2021/10/12 05:59:10;;;;;;;72.20;44.85;;;;;;;10.09;83.92;100969.09;4861290;29;20410;-76
2021/10/12 06:01:36;;;;;;;79.13;47.00;;;;;;;10.11;84.32;100967.00;4861846;29;20477;-77
2021/10/12 06:04:02;;;;;;;78.20;47.75;;;;;;;10.13;84.46;100967.56;4861401;29;20485;-76
2021/10/12 06:06:28;;;;;;;84.80;47.03;;;;;;;10.08;84.52;100962.84;4844734;29;20567;-77
2021/10/12 06:08:53;;;;;;;67.22;43.50;;;;;;;10.10;84.56;100976.16;4861654;29;20513;-76
2021/10/12 06:11:18;;;;;;;69.37;42.07;;;;;;;10.10;84.62;100974.28;4861270;29;20421;-77
2021/10/12 06:13:45;;;;;;;70.43;42.85;;;;;;;10.10;84.27;100977.00;4844857;29;20434;-76
2021/10/12 06:16:12;;;;;;;72.40;42.97;;;;;;;10.10;84.71;100968.03;4860411;29;20418;-77
2021/10/12 06:18:37;;;;;;;67.32;42.45;;;;;;;10.14;84.59;100971.97;4860984;29;20422;-77
2021/10/12 06:21:02;;;;;;;64.13;41.07;;;;;;;10.13;84.26;100970.28;4861178;29;20418;-77
2021/10/12 06:23:28;;;;;;;65.63;41.72;;;;;;;10.10;84.32;100973.44;4861244;29;20406;-77
2021/10/12 06:25:54;;;;;;;67.63;40.80;;;;;;;10.04;84.62;100956.25;4861291;29;20933;-77
2021/10/12 06:28:20;;;;;;;73.27;43.37;;;;;;;10.00;84.87;100951.50;4844477;29;20502;-78
2021/10/12 06:30:46;;;;;;;76.60;43.85;;;;;;;10.00;85.04;100952.34;4861301;29;20419;-77
2021/10/12 06:33:12;;;;;;;58.05;38.40;;;;;;;10.07;84.99;100957.66;4843934;29;20423;-77
2021/10/12 06:35:38;;;;;;;59.60;36.30;;;;;;;10.09;84.46;100966.38;4860301;29;20414;-77
2021/10/12 06:38:04;;;;;;;66.13;39.63;;;;;;;10.10;84.43;100958.03;4860453;29;20917;-77
2021/10/12 06:40:32;;;;;;;56.42;35.70;;;;;;;10.10;84.42;100962.63;4861259;29;20416;-77
2021/10/12 06:42:58;;;;;;;57.03;36.45;;;;;;;10.10;84.30;100963.44;4853756;29;20434;-76
2021/10/12 06:45:23;;;;;;;56.58;34.55;;;;;;;10.10;84.32;100966.16;4859939;29;20430;-77
2021/10/12 06:47:49;;;;;;;56.97;33.33;;;;;;;10.12;84.44;100968.63;4843196;29;20536;-77
2021/10/12 06:50:17;;;;;;;56.25;35.13;;;;;;;10.11;84.01;100972.41;4853551;29;20489;-77
2021/10/12 06:52:42;;;;;;;55.90;34.83;;;;;;;10.12;84.35;100966.75;4857404;29;20419;-77
2021/10/12 06:55:09;;;;;;;56.42;35.42;;;;;;;10.16;84.22;100972.56;4851908;29;20424;-77
2021/10/12 06:57:36;;;;;;;55.47;33.88;;;;;;;10.17;83.95;100969.63;4860391;29;20479;-76
2021/10/12 07:00:03;;;;;;;53.42;32.72;;;;;;;10.20;83.89;100966.47;4860223;29;20415;-76
2021/10/12 07:02:28;;;;;;;47.90;31.92;;;;;;;10.20;84.02;100971.06;4860199;29;20419;-77
2021/10/12 07:04:53;;;;;;;50.70;31.83;;;;;;;10.19;84.26;100972.94;4860557;29;20474;-77
2021/10/12 07:07:18;;;;;;;52.50;31.77;;;;;;;10.17;84.09;100977.75;4859216;29;20870;-77
2021/10/12 07:09:44;;;;;;;44.70;29.60;;;;;;;10.16;83.96;100975.28;4841934;29;20432;-77
2021/10/12 07:12:09;;;;;;;47.37;31.00;;;;;;;10.11;84.51;100978.63;4843479;29;20429;-77
2021/10/12 07:14:35;;;;;;;48.20;29.10;;;;;;;10.13;84.21;100975.69;4843329;29;20418;-77
2021/10/12 07:17:00;;;;;;;50.42;29.60;;;;;;;10.14;84.27;100971.97;4860035;29;20436;-77
2021/10/12 07:19:27;;;;;;;44.00;29.40;;;;;;;10.12;84.37;100983.00;4858890;29;20415;-77
2021/10/12 07:21:54;;;;;;;47.50;29.23;;;;;;;10.16;83.98;100976.09;4846253;29;20501;-78
2021/10/12 07:24:19;;;;;;;44.85;29.13;;;;;;;10.21;83.58;100978.09;4858851;29;20410;-78
2021/10/12 07:26:44;;;;;;;40.50;26.93;;;;;;;10.26;83.69;100980.97;4858937;29;20943;-77
2021/10/12 07:29:09;;;;;;;45.77;28.83;;;;;;;10.27;83.36;100975.28;4861857;29;20426;-77
2021/10/12 07:31:35;;;;;;;44.70;29.13;;;;;;;10.29;83.79;100973.19;4859763;29;20426;-77
2021/10/12 07:34:00;;;;;;;48.53;28.67;;;;;;;10.33;83.64;100979.81;4859367;29;20422;-77
2021/10/12 07:36:25;;;;;;;46.73;32.10;;;;;;;10.43;83.28;100976.56;4859125;29;20418;-77
2021/10/12 07:38:51;;;;;;;42.53;27.77;;;;;;;10.46;83.02;100980.66;4859551;29;20514;-77
2021/10/12 07:41:20;;;;;;;45.43;27.50;;;;;;;10.49;83.13;100986.47;4857652;29;20873;-77
2021/10/12 07:43:45;;;;;;;44.20;27.42;;;;;;;10.50;83.06;100977.28;4843302;29;20917;-77
2021/10/12 07:46:19;;;;;;;34.58;25.27;;;;;;;10.44;83.06;100975.47;4843126;29;20419;-77
2021/10/12 07:48:45;;;;;;;41.75;26.83;;;;;;;10.53;83.32;100973.28;4841204;29;20415;-77
2021/10/12 07:51:10;;;;;;;40.30;25.60;;;;;;;10.60;82.94;100976.72;4859846;29;20928;-78
2021/10/12 07:53:37;;;;;;;40.37;24.93;;;;;;;10.65;82.74;100980.38;4859106;29;20421;-77
2021/10/12 07:56:07;;;;;;;39.35;26.15;;;;;;;10.75;82.11;100967.06;4859262;29;20695;-76
2021/10/12 07:58:33;;;;;;;37.28;24.92;;;;;;;10.87;82.15;100980.63;4859090;29;20505;-77
2021/10/12 08:00:58;;;;;;;34.83;23.23;;;;;;;10.88;82.64;100968.72;4859361;29;20562;-77
2021/10/12 08:03:23;;;;;;;36.73;23.43;;;;;;;10.92;81.96;100969.91;4858677;29;20890;-77
2021/10/12 08:05:48;;;;;;;32.73;22.63;;;;;;;11.03;81.61;100977.22;4842090;29;20422;-77
2021/10/12 08:08:14;;;;;;;37.30;22.83;;;;;;;11.07;81.34;100974.88;4858255;29;21013;-77
2021/10/12 08:10:39;;;;;;;29.70;21.90;;;;;;;11.08;81.57;100974.63;4856099;29;20414;-76
2021/10/12 08:13:08;;;;;;;32.47;21.77;;;;;;;10.97;82.13;100971.91;4840977;29;20418;-77
2021/10/12 08:15:34;;;;;;;32.22;21.92;;;;;;;11.00;82.15;100968.75;4855039;29;20978;-77
2021/10/12 08:17:59;;;;;;;34.90;21.73;;;;;;;10.96;82.18;100965.69;4858323;29;20446;-77
2021/10/12 08:20:25;;;;;;;35.38;22.50;;;;;;;10.97;82.40;100967.31;4857683;29;20429;-74
2021/10/12 08:22:51;;;;;;;41.58;25.23;;;;;;;11.03;82.13;100962.84;4845328;29;20493;-77
2021/10/12 08:25:16;;;;;;;35.50;23.38;;;;;;;11.07;82.25;100964.00;4864580;29;20418;-77
2021/10/12 08:27:42;;;;;;;37.42;22.60;;;;;;;11.07;81.53;100961.31;4855094;29;20438;-77
2021/10/12 08:30:10;;;;;;;31.43;21.53;;;;;;;11.09;82.00;100960.03;4852279;29;20418;-74
2021/10/12 08:32:36;;;;;;;33.97;21.33;;;;;;;11.09;81.99;100957.31;4836526;29;20459;-77
2021/10/12 08:35:03;;;;;;;32.75;21.33;;;;;;;11.08;81.83;100955.66;4858763;29;20961;-77
2021/10/12 08:37:29;;;;;;;33.95;21.15;;;;;;;11.10;82.01;100950.00;4858391;29;20421;-77
2021/10/12 08:39:54;;;;;;;34.78;20.88;;;;;;;11.09;82.27;100954.59;4857939;29;20419;-77
2021/10/12 08:42:26;;;;;;;35.37;21.87;;;;;;;11.15;82.27;100952.81;4852281;29;20983;-77
2021/10/12 08:44:57;;;;;;;29.00;19.60;;;;;;;11.22;81.88;100950.81;4837466;29;20445;-77
2021/10/12 08:47:23;;;;;;;34.92;21.83;;;;;;;11.16;81.78;100944.47;4836865;29;20434;-77
2021/10/12 08:49:50;;;;;;;31.90;19.98;;;;;;;11.15;82.23;100945.50;4839235;29;20571;-77
2021/10/12 08:52:15;;;;;;;35.60;21.63;;;;;;;11.20;82.25;100944.78;4838216;29;20790;-77
2021/10/12 08:54:40;;;;;;;40.58;24.50;;;;;;;11.25;82.08;100948.47;4849303;29;20423;-76
2021/10/12 08:57:06;;;;;;;38.87;22.30;;;;;;;11.26;82.00;100941.94;4845554;29;20424;-77
2021/10/12 08:59:31;;;;;;;34.25;20.58;;;;;;;11.39;81.67;100949.03;4845220;29;20434;-77
2021/10/12 09:01:58;;;;;;;34.07;21.93;;;;;;;11.41;81.40;100936.03;4833056;29;20426;-77
2021/10/12 09:04:25;;;;;;;24.52;18.48;;;;;;;11.43;81.09;100942.03;4861853;29;20406;-77
2021/10/12 09:06:56;;;;;;;33.77;20.30;;;;;;;11.44;80.70;100938.28;4844036;29;20484;-77
2021/10/12 09:09:35;;;;;;;24.25;17.55;;;;;;;11.47;80.46;100935.09;4851448;29;20451;-77
2021/10/12 09:12:02;;;;;;;33.55;20.48;;;;;;;11.50;80.80;100940.03;4858679;29;20421;-77
2021/10/12 09:14:27;;;;;;;29.45;18.35;;;;;;;11.52;80.42;100942.53;4858241;29;20471;-78
2021/10/12 09:17:02;;;;;;;29.27;18.45;;;;;;;11.50;80.76;100945.47;4842613;29;20410;-77
2021/10/12 09:19:33;;;;;;;26.00;18.70;;;;;;;11.48;80.82;100944.06;4840905;29;20481;-77
2021/10/12 09:22:05;;;;;;;27.13;18.27;;;;;;;11.44;80.89;100938.28;4852154;29;20821;-77
2021/10/12 09:24:38;;;;;;;31.42;18.85;;;;;;;11.46;81.27;100936.13;4857647;29;20453;-77
2021/10/12 09:27:09;;;;;;;25.85;18.38;;;;;;;11.46;81.25;100933.41;4857952;29;20434;-77
2021/10/12 09:29:40;;;;;;;28.95;18.17;;;;;;;11.53;80.97;100925.16;4852544;29;20422;-77
2021/10/12 09:32:07;;;;;;;24.77;17.60;;;;;;;11.55;80.56;100921.16;4855734;29;20415;-77
2021/10/12 09:34:37;;;;;;;27.20;18.65;;;;;;;11.53;80.77;100917.84;4855397;29;20918;-77
2021/10/12 09:37:04;;;;;;;27.97;17.77;;;;;;;11.56;80.83;100906.50;4841400;29;20430;-77
2021/10/12 09:39:43;;;;;;;27.25;18.33;;;;;;;11.60;80.40;100896.81;4856899;29;20442;-77
2021/10/12 09:42:11;;;;;;;31.02;18.50;;;;;;;11.61;79.99;100900.34;4841661;29;20417;-77
2021/10/12 09:44:38;;;;;;;28.00;18.27;;;;;;;11.65;80.48;100891.50;4857642;29;20429;-76
2021/10/12 09:47:13;;;;;;;27.67;18.40;;;;;;;11.73;80.59;100893.84;4857252;29;20493;-77
2021/10/12 09:49:38;;;;;;;29.90;18.20;;;;;;;11.74;80.25;100900.09;4841356;29;20414;-77
2021/10/12 09:52:13;;;;;;;25.77;18.40;;;;;;;11.82;80.23;100897.81;4841265;29;20485;-77
2021/10/12 09:54:48;;;;;;;28.98;19.60;;;;;;;11.81;80.27;100901.63;4857021;29;20415;-77
2021/10/12 09:57:15;;;;;;;27.70;18.25;;;;;;;11.87;80.53;100892.50;4853284;29;20527;-77
2021/10/12 09:59:41;;;;;;;28.58;18.00;;;;;;;11.92;80.16;100891.78;4856156;29;20418;-76
2021/10/12 10:02:11;;;;;;;25.88;16.75;;;;;;;11.95;80.03;100886.66;4837928;29;20422;-77
2021/10/12 10:04:38;;;;;;;26.05;17.55;;;;;;;12.05;79.57;100886.06;4856775;29;20413;-77
2021/10/12 10:07:05;;;;;;;26.17;16.65;;;;;;;12.18;79.38;100877.59;4857333;29;20461;-76
2021/10/12 10:09:44;;;;;;;23.48;16.05;;;;;;;12.14;79.66;100881.88;4858103;29;20430;-77
2021/10/12 10:12:10;;;;;;;22.13;15.45;;;;;;;12.35;78.22;100880.28;4841345;29;20510;-76
2021/10/12 10:14:36;;;;;;;25.70;15.88;;;;;;;12.51;77.83;100873.25;4859040;29;20414;-77
2021/10/12 10:17:03;;;;;;;23.05;16.75;;;;;;;12.57;77.64;100869.53;4844652;29;21034;-77
2021/10/12 10:19:36;;;;;;;28.00;16.63;;;;;;;12.46;77.92;100866.66;4861185;29;20418;-77
2021/10/12 10:22:02;;;;;;;23.90;17.10;;;;;;;12.25;78.19;100858.41;4860680;29;20406;-77
2021/10/12 10:24:34;;;;;;;27.55;18.58;;;;;;;12.24;78.46;100856.75;4853760;29;20413;-77
2021/10/12 10:27:00;;;;;;;27.65;16.80;;;;;;;12.20;78.39;100867.28;4861108;29;20458;-77
2021/10/12 10:29:28;;;;;;;25.30;15.82;;;;;;;12.14;78.48;100862.00;4859647;29;20422;-77
2021/10/12 10:32:10;;;;;;;22.85;15.43;;;;;;;12.05;79.00;100858.88;4854638;29;20418;-76
2021/10/12 10:34:38;;;;;;;25.55;16.58;;;;;;;11.93;79.53;100848.06;4847007;29;21203;-77
2021/10/12 10:37:15;;;;;;;28.02;16.02;;;;;;;12.08;78.79;100847.53;4860278;29;20452;-77
2021/10/12 10:39:46;;;;;;;23.27;16.00;;;;;;;12.18;78.52;100842.28;4843825;29;20423;-77
2021/10/12 10:42:26;;;;;;;26.73;16.57;;;;;;;12.30;78.19;100850.34;4860844;29;20497;-77
2021/10/12 10:44:56;;;;;;;21.85;15.52;;;;;;;12.24;78.36;100841.28;4841596;29;20430;-77
2021/10/12 10:47:40;;;;;;;24.10;15.63;;;;;;;12.31;78.27;100833.78;4853499;29;20439;-77
2021/10/12 10:50:13;;;;;;;25.38;15.50;;;;;;;12.44;77.99;100827.19;4861263;29;20414;-77
2021/10/12 10:52:55;;;;;;;20.00;15.25;;;;;;;12.66;76.78;100827.25;4859416;29;20439;-77
2021/10/12 10:55:30;;;;;;;23.90;16.20;;;;;;;12.82;76.44;100827.22;4855999;29;20786;-77
2021/10/12 10:58:18;;;;;;;19.27;14.20;;;;;;;12.88;76.36;100823.50;4859527;29;20475;-77
2021/10/12 11:00:44;;;;;;;18.90;14.20;;;;;;;13.08;74.88;100814.78;4844486;29;20485;-77
2021/10/12 11:03:30;;;;;;;18.40;14.20;;;;;;;13.24;75.13;100823.97;4860897;29;20958;-77
2021/10/12 11:05:57;;;;;;;21.17;14.80;;;;;;;13.18;75.44;100816.81;4853675;29;20446;-77
2021/10/12 11:08:27;;;;;;;22.50;15.23;;;;;;;13.01;75.45;100820.41;4860468;29;20806;-76
2021/10/12 11:10:57;;;;;;;22.10;15.38;;;;;;;12.90;75.45;100815.91;4843553;29;20410;-76